LZIBLHSM

Guest
Details From LZIB - Bratislava/M.R. Stefanik
To LHSM - BALATON
Flight Number -
Tags decoded
Created
Modified
Stats Distance 98 nm / 182 km
Max Altitude 0 ft / 0 m
Waypoints 3
Social Downloads 0
Likes 0
Share VATSIM

Download

Looking for another format? Having issues loading an existing format? Contact us
Advertisement - Login to hide

Notes

Requested: LZIB VAMOG LHSM

Route

LZIB VAMOG LHSM

ID Type Via Altitude Latitude Longitude Leg Dist Tot Dist Heading (true) Name
O LZIB APT - 0 ft / 0 m 48.16831˚ 17.21560˚ - 0 nm - Bratislava/M.R. Stefanik
VAMOG FIX - 0 ft / 0 m 47.78722˚ 17.66250˚ 29 nm 29 nm 142° / 142° -
O LHSM APT - 0 ft / 0 m 46.68829˚ 17.15766˚ 69 nm 98 nm 198° / 197° BALATON

Altitude Profile

Advertisement - Login to hide

LZIB

Details ICAO LZIB (BTS)
Name Bratislava/M.R. Stefanik
Region Slovakia
Timezone Europe/Bratislava (UTC+1.0)
Stats Elevation 436 ft / 133 m (AMSL)
Location 48.168314° 17.215597°
Runways 2
Magnetic Variation 4.404° E

METAR

LZIB 120518Z 26015KT 220V300 9999 BKN041 12/04 Q1000

Decode

TAF

Not found

Departure Runways

ID Width Length Bearing (true) Bearing (mag) Surface Threshold Offset Overrun Length
04 197 ft / 60 m 9,540 ft / 2,908 m 43.80° 39.40° Concrete 0 ft / 0 m 7 ft / 2 m
13 148 ft / 45 m 9,688 ft / 2,953 m 134.02° 129.62° Concrete 0 ft / 0 m 98 ft / 30 m
22 197 ft / 60 m 9,540 ft / 2,908 m 223.82° 219.42° Concrete 0 ft / 0 m 49 ft / 15 m
31 148 ft / 45 m 9,688 ft / 2,953 m 314.04° 309.64° Concrete 0 ft / 0 m 810 ft / 247 m

LHSM

Details ICAO LHSM (SOB)
Name BALATON
Region Hungary
Timezone Europe/Budapest (UTC+1.0)
Stats Elevation 408 ft / 124 m (AMSL)
Location 46.688289° 17.157658°
Runways 2
Magnetic Variation 4.256° E

METAR

LHSM 120445Z 18019KT CAVOK 15/06 Q1001

Decode

TAF

Not found

Destination Runways

ID Width Length Bearing (true) Bearing (mag) Surface Threshold Offset Overrun Length
16 197 ft / 60 m 8,215 ft / 2,504 m 165.38° 161.12° Concrete 0 ft / 0 m 0 ft / 0 m
17R 212 ft / 65 m 3,101 ft / 945 m 165.17° 160.91° Grass 0 ft / 0 m 0 ft / 0 m
34 197 ft / 60 m 8,215 ft / 2,504 m 345.38° 341.12° Concrete 0 ft / 0 m 0 ft / 0 m
35L 212 ft / 65 m 3,101 ft / 945 m 345.17° 340.91° Grass 0 ft / 0 m 0 ft / 0 m

Approach Navaids

Runway Type Ident Frequency Range Bearing (true) Bearing (mag) Slope Elevation
16 Localiser SMK 108.75 MHz 18 nm / 33 km 165.40° 161.15° - 408 ft / 124 m (AMSL)
16 Glidescope SMK 108.75 MHz 10 nm / 19 km 165.38° 161.12° 3.00° 408 ft / 124 m (AMSL)
16 DME SMK 108.75 MHz 18 nm / 33 km - - - 408 ft / 124 m (AMSL)